Aérodrome :
LOGIN :

S'inscrire | Disclaimer

   EN    FR    IT 

 










Légende :    VFR   VFR Marginal   IFR   IFR Intensif   IFR Très Intensif
Visi : 
Plafond : 
>= 8 km
>= 3000ft
5 à 8 km
1000 à 3000 ft
1500m à 5 km
500 à 1000 ft
800 à 1500m
200 à 500 ft
< 800m
< 200 ft
Symboles :   Orages  Brouillard  Fortes neiges  Fortes précipitations  Vent > 20 kt
SIGMETs :   Divers  Orages  Givrage  Turbulence  Onde Orograph.  Cendres Volcan.







- Altitude de l'aérodrome : 13 ft
- Code IATA : SNR
- Voir les cartes d'approche


LFRZ - St-Nazaire

DERNIER METAR :
  • 230130Z AUTO 25003KT CAVOK 10/10 Q1017 TEMPO OVC008

METARs EXPIRÉS :
  • 230100Z AUTO 27004KT CAVOK 11/11 Q1017 TEMPO OVC008
  • 230030Z AUTO 27004KT CAVOK 12/11 Q1017 TEMPO OVC008
  • 230000Z AUTO 25005KT CAVOK 11/10 Q1017 TEMPO OVC008
  • 222330Z AUTO 24005KT CAVOK 11/10 Q1017 TEMPO OVC008
  • 222300Z AUTO 24005KT CAVOK 11/09 Q1017 TEMPO BKN006

TAF TAF LFRZ
Valide du 23 à 00h jusqu'au 24 à 00h UTC


222300Z 2300/2324 25005KT 9000 NSC
TEMPO 2300/2308 OVC008
BECMG 2306/2308 VRB02KT
BECMG 2314/2316 27007KT
Pas de NOTAMs connus pour ce terrain.



MET'MAP, la Météo Aéronautique d'un coup d'oeil ! - Copyright ORBIFLY Décembre 2007 - Disclaimer

ORBIFLY MET'MAP TEAM :

Programmation & Développement : Alexandra Zaïnal
Conception & Développement : Baudouin d'Aumeries
Co-Programmation & Développement : Marc-Olivier Méhu
Soutien technique & logistique : Manuel Goepfert

Contact : metmap@orbifly.com




SOURCES & CREDITS :

   NOAA